Time;durP1;ratioP1;P1;durP2;ratioP2;P2;SDS_P1;SDS_P2;PMS_P1;PMS_P2;Temp;Humidity;BMP_temperature;BMP_pressure;BME280_temperature;BME280_humidity;BME280_pressure;Samples;Min_cycle;Max_cycle;Signal;HPM_P1;HPM_P2
2021/01/31 00:00:22;;;;;;;12.10;7.65;;;3.40;99.90;;;;;;5011510;28;20045;-78
2021/01/31 00:02:48;;;;;;;14.23;8.65;;;3.40;99.90;;;;;;4991573;28;20669;-78
2021/01/31 00:05:14;;;;;;;13.27;7.90;;;3.30;99.90;;;;;;5013066;28;20415;-78
2021/01/31 00:07:40;;;;;;;15.52;9.32;;;3.40;99.90;;;;;;5001974;28;20729;-78
2021/01/31 00:10:07;;;;;;;13.70;8.63;;;3.40;99.90;;;;;;4994787;28;20038;-78
2021/01/31 00:12:33;;;;;;;15.77;9.20;;;3.30;99.90;;;;;;4999507;28;20042;-78
2021/01/31 00:14:59;;;;;;;13.43;8.13;;;3.40;99.90;;;;;;5010236;28;20068;-78
2021/01/31 00:17:24;;;;;;;12.57;8.25;;;3.30;99.90;;;;;;4992229;28;20049;-78
2021/01/31 00:19:50;;;;;;;16.05;9.25;;;3.30;99.90;;;;;;5008105;28;20037;-79
2021/01/31 00:22:15;;;;;;;16.35;9.82;;;3.30;99.90;;;;;;5008987;28;20046;-79
2021/01/31 00:24:41;;;;;;;19.67;9.57;;;3.30;99.90;;;;;;5012405;28;20041;-79
2021/01/31 00:27:06;;;;;;;14.80;9.45;;;3.30;99.90;;;;;;5010302;28;20045;-78
2021/01/31 00:29:32;;;;;;;14.68;9.20;;;3.30;99.90;;;;;;5009108;28;20030;-79
2021/01/31 00:31:57;;;;;;;16.17;9.18;;;3.30;99.90;;;;;;5009035;28;20041;-78
2021/01/31 00:34:23;;;;;;;15.88;9.85;;;3.30;99.90;;;;;;5007505;28;20153;-79
2021/01/31 00:36:49;;;;;;;17.40;9.80;;;3.20;99.90;;;;;;5009798;28;20096;-79
2021/01/31 00:39:15;;;;;;;16.20;9.48;;;3.20;99.90;;;;;;5007482;28;20091;-79
2021/01/31 00:41:42;;;;;;;19.83;10.38;;;3.20;99.90;;;;;;4991353;28;20045;-77
2021/01/31 00:44:08;;;;;;;18.92;10.52;;;3.20;99.90;;;;;;5009523;28;20519;-77
2021/01/31 00:46:37;;;;;;;18.60;10.52;;;3.20;99.90;;;;;;5011526;28;20615;-79
2021/01/31 00:49:04;;;;;;;20.13;10.75;;;3.20;99.90;;;;;;4989876;28;20081;-78
2021/01/31 00:51:29;;;;;;;19.13;10.70;;;3.20;99.90;;;;;;4991091;28;20042;-78
2021/01/31 00:53:55;;;;;;;18.70;10.93;;;3.20;99.90;;;;;;5007109;28;20096;-78
2021/01/31 00:56:20;;;;;;;17.02;10.13;;;3.20;99.90;;;;;;5007710;28;20045;-79
2021/01/31 00:58:46;;;;;;;16.13;9.75;;;3.20;99.90;;;;;;5012078;28;20092;-78
2021/01/31 01:01:14;;;;;;;16.85;9.98;;;3.10;99.90;;;;;;4991979;28;20399;-77
2021/01/31 01:03:40;;;;;;;17.33;10.10;;;3.20;99.90;;;;;;5003873;28;20030;-78
2021/01/31 01:06:05;;;;;;;16.77;10.40;;;3.10;99.90;;;;;;5005649;28;20046;-78
2021/01/31 01:08:31;;;;;;;18.50;10.57;;;3.10;99.90;;;;;;4993516;28;20044;-78
2021/01/31 01:10:57;;;;;;;21.40;11.05;;;3.20;99.90;;;;;;5010284;28;20116;-78
2021/01/31 01:13:22;;;;;;;19.25;11.18;;;3.10;99.90;;;;;;5012584;28;20087;-78
2021/01/31 01:15:48;;;;;;;19.25;11.35;;;3.10;99.90;;;;;;5011076;28;20038;-78
2021/01/31 01:18:14;;;;;;;20.13;11.85;;;3.10;99.90;;;;;;5007748;28;20118;-78
2021/01/31 01:20:39;;;;;;;20.73;11.43;;;3.10;99.90;;;;;;5011321;28;20042;-78
2021/01/31 01:23:05;;;;;;;19.45;11.70;;;3.10;99.90;;;;;;4987373;28;20038;-78
2021/01/31 01:25:30;;;;;;;19.83;11.80;;;3.10;99.90;;;;;;5006951;28;20050;-78
2021/01/31 01:27:56;;;;;;;21.35;11.85;;;3.10;99.90;;;;;;5012160;28;20040;-78
2021/01/31 01:30:25;;;;;;;23.88;12.43;;;3.10;99.90;;;;;;5015473;28;20041;-78
2021/01/31 01:32:51;;;;;;;21.17;11.73;;;3.10;99.90;;;;;;4989887;28;20109;-78
2021/01/31 01:35:17;;;;;;;23.58;12.15;;;3.10;99.90;;;;;;5011175;28;20511;-78
2021/01/31 01:37:43;;;;;;;20.30;11.57;;;3.10;99.90;;;;;;5013649;28;20045;-78
2021/01/31 01:40:17;;;;;;;19.73;11.73;;;3.20;99.90;;;;;;5011826;28;20034;-77
2021/01/31 01:42:43;;;;;;;31.20;12.68;;;3.10;99.90;;;;;;4994376;28;20430;-78
2021/01/31 01:45:09;;;;;;;20.52;12.30;;;3.10;99.90;;;;;;5010886;28;20041;-78
2021/01/31 01:47:35;;;;;;;21.38;11.48;;;3.10;99.90;;;;;;5010890;28;20034;-78
2021/01/31 01:50:29;;;;;;;17.55;11.27;;;3.10;99.90;;;;;;4995749;28;20040;-78
2021/01/31 01:52:59;;;;;;;20.43;12.17;;;3.10;99.90;;;;;;4982688;28;20030;-79
2021/01/31 01:55:27;;;;;;;21.13;11.70;;;3.10;99.90;;;;;;5008213;28;20038;-78
2021/01/31 01:58:04;;;;;;;22.70;11.80;;;3.10;99.90;;;;;;5012848;28;20514;-78
2021/01/31 02:00:32;;;;;;;17.85;11.18;;;3.20;99.90;;;;;;5013861;28;20457;-78
2021/01/31 02:03:03;;;;;;;20.48;12.25;;;3.10;99.90;;;;;;5002979;28;20088;-79
2021/01/31 02:05:29;;;;;;;22.75;11.75;;;3.10;99.90;;;;;;5011105;28;20045;-78
2021/01/31 02:07:55;;;;;;;20.05;10.65;;;3.10;99.90;;;;;;4988332;28;20027;-78
2021/01/31 02:10:24;;;;;;;24.15;12.95;;;3.10;99.90;;;;;;4989548;28;22576;-78
2021/01/31 02:12:54;;;;;;;21.85;12.20;;;3.20;99.90;;;;;;5008704;28;20044;-78
2021/01/31 02:15:20;;;;;;;17.55;11.05;;;3.10;99.90;;;;;;5011214;28;20037;-78
2021/01/31 02:18:04;;;;;;;17.13;10.20;;;3.10;99.90;;;;;;4987335;28;20074;-77
2021/01/31 02:21:10;;;;;;;22.48;12.15;;;3.10;99.90;;;;;;5007647;28;20044;-77
2021/01/31 02:24:06;;;;;;;19.27;11.85;;;3.10;99.90;;;;;;4992363;28;20517;-77
2021/01/31 02:26:53;;;;;;;22.83;13.05;;;3.20;99.90;;;;;;5008536;28;20034;-77
2021/01/31 02:29:52;;;;;;;23.00;12.05;;;3.20;99.90;;;;;;5007753;28;20060;-77
2021/01/31 02:32:55;;;;;;;18.88;10.90;;;3.20;99.90;;;;;;4985548;28;20049;-77
2021/01/31 02:35:24;;;;;;;22.42;10.90;;;3.20;99.90;;;;;;5016851;28;20034;-76
2021/01/31 02:38:00;;;;;;;17.08;10.52;;;3.20;99.90;;;;;;5008702;28;20042;-77
2021/01/31 02:40:37;;;;;;;18.60;10.98;;;3.10;99.90;;;;;;4987597;28;20126;-77
2021/01/31 02:43:17;;;;;;;20.52;12.30;;;3.10;99.90;;;;;;5005712;28;20517;-77
2021/01/31 02:45:51;;;;;;;21.70;11.82;;;3.10;99.90;;;;;;4992878;28;20582;-77
2021/01/31 02:48:27;;;;;;;25.25;12.13;;;3.20;99.90;;;;;;5010842;28;20410;-77
2021/01/31 02:51:01;;;;;;;21.10;11.48;;;3.10;99.90;;;;;;4993616;28;20587;-77
2021/01/31 02:53:33;;;;;;;19.20;11.45;;;3.20;99.90;;;;;;5009703;28;20442;-77
2021/01/31 02:56:13;;;;;;;20.90;11.27;;;3.10;99.90;;;;;;4994319;28;20088;-77
2021/01/31 02:58:44;;;;;;;22.38;12.13;;;3.10;99.90;;;;;;5014345;28;20080;-77
2021/01/31 03:01:40;;;;;;;20.70;12.85;;;3.10;99.90;;;;;;5011568;28;20744;-77
2021/01/31 03:04:26;;;;;;;18.77;11.20;;;3.10;99.90;;;;;;5011002;28;20052;-78
2021/01/31 03:06:58;;;;;;;21.02;11.40;;;3.10;99.90;;;;;;5011512;28;20450;-78
2021/01/31 03:09:48;;;;;;;20.77;12.18;;;3.00;99.90;;;;;;5011461;28;20065;-78
2021/01/31 03:12:29;;;;;;;20.33;11.02;;;3.00;99.90;;;;;;5010165;28;20038;-78
2021/01/31 03:15:04;;;;;;;22.30;12.73;;;3.00;99.90;;;;;;5012218;28;20120;-78
2021/01/31 03:17:40;;;;;;;24.40;12.13;;;3.00;99.90;;;;;;5010898;28;20034;-78
2021/01/31 03:20:21;;;;;;;20.60;12.07;;;3.00;99.90;;;;;;5011780;28;20029;-78
2021/01/31 03:23:26;;;;;;;24.13;12.20;;;3.00;99.90;;;;;;5009809;28;20042;-78
2021/01/31 03:26:02;;;;;;;19.85;10.98;;;2.90;99.90;;;;;;5014951;28;20553;-78
2021/01/31 03:28:28;;;;;;;19.95;11.02;;;2.80;99.90;;;;;;5010045;28;20046;-78
2021/01/31 03:30:57;;;;;;;22.50;12.02;;;2.90;99.90;;;;;;5009677;28;20029;-77
2021/01/31 03:33:28;;;;;;;24.45;12.95;;;2.90;99.90;;;;;;5005764;28;20466;-77
2021/01/31 03:35:54;;;;;;;20.95;12.25;;;2.90;99.90;;;;;;4987066;28;20034;-77
2021/01/31 03:38:36;;;;;;;23.33;13.18;;;2.90;99.90;;;;;;4990621;28;20111;-77
2021/01/31 03:41:06;;;;;;;21.95;12.43;;;2.80;99.90;;;;;;5010429;28;20048;-77
2021/01/31 03:43:31;;;;;;;21.85;12.93;;;2.80;99.90;;;;;;5008261;28;20042;-77
2021/01/31 03:46:12;;;;;;;25.05;12.57;;;2.70;99.90;;;;;;5007790;28;20052;-77
2021/01/31 03:48:45;;;;;;;26.23;12.88;;;2.70;99.90;;;;;;5003975;28;20706;-78
2021/01/31 03:51:11;;;;;;;25.58;13.60;;;2.70;99.90;;;;;;4984708;28;20061;-78
2021/01/31 03:53:37;;;;;;;26.90;13.50;;;2.70;99.90;;;;;;5007329;28;20135;-78
2021/01/31 03:56:04;;;;;;;28.13;14.27;;;2.70;99.90;;;;;;5007982;28;20442;-77
2021/01/31 03:58:30;;;;;;;30.45;13.75;;;2.80;99.90;;;;;;5008317;28;20123;-78
2021/01/31 04:01:01;;;;;;;30.70;14.15;;;2.80;99.90;;;;;;4990163;28;20214;-77
2021/01/31 04:03:51;;;;;;;29.15;15.00;;;2.80;99.90;;;;;;4991640;28;20033;-78
2021/01/31 04:06:20;;;;;;;25.52;13.98;;;2.80;99.90;;;;;;5010241;28;20052;-78
2021/01/31 04:08:51;;;;;;;29.70;15.05;;;2.80;99.90;;;;;;5005019;28;20034;-77
2021/01/31 04:11:42;;;;;;;28.83;15.02;;;2.80;99.90;;;;;;5011196;28;20049;-78
2021/01/31 04:14:33;;;;;;;27.85;14.13;;;2.80;99.90;;;;;;5016887;28;20034;-77
2021/01/31 04:16:58;;;;;;;25.85;13.85;;;2.70;99.90;;;;;;5012844;28;20704;-77
2021/01/31 04:19:24;;;;;;;24.08;13.13;;;2.80;99.90;;;;;;5009121;28;20050;-77
2021/01/31 04:21:49;;;;;;;23.27;12.88;;;2.80;99.90;;;;;;5004881;28;20608;-77
2021/01/31 04:24:15;;;;;;;25.10;12.40;;;2.80;99.90;;;;;;5013721;28;20041;-77
2021/01/31 04:26:40;;;;;;;24.52;13.68;;;2.80;99.90;;;;;;5007153;28;20111;-77
2021/01/31 04:29:07;;;;;;;24.10;13.07;;;2.80;99.90;;;;;;5000042;28;20064;-77
2021/01/31 04:31:33;;;;;;;21.27;11.95;;;2.80;99.90;;;;;;4993643;28;20164;-77
2021/01/31 04:33:59;;;;;;;21.85;13.05;;;2.80;99.90;;;;;;5009859;28;20585;-76
2021/01/31 04:36:26;;;;;;;22.80;12.57;;;2.80;99.90;;;;;;4993318;28;20038;-76
2021/01/31 04:38:51;;;;;;;24.42;13.07;;;2.80;99.90;;;;;;5010433;28;20042;-77
2021/01/31 04:41:18;;;;;;;20.48;11.30;;;2.80;99.90;;;;;;4993878;28;20498;-77
2021/01/31 04:43:44;;;;;;;20.33;12.38;;;2.80;99.90;;;;;;4991696;28;20048;-76
2021/01/31 04:46:16;;;;;;;23.20;12.95;;;2.80;99.90;;;;;;5009420;28;20037;-77
2021/01/31 04:48:48;;;;;;;24.23;12.90;;;2.80;99.90;;;;;;5009878;28;20441;-77
2021/01/31 04:51:31;;;;;;;20.83;13.35;;;2.80;99.90;;;;;;5009728;28;20046;-77
2021/01/31 04:54:29;;;;;;;23.52;11.38;;;2.80;99.90;;;;;;4999344;28;20041;-78
2021/01/31 04:57:08;;;;;;;20.90;12.20;;;2.70;99.90;;;;;;5007611;28;20038;-78
2021/01/31 04:59:40;;;;;;;22.88;12.68;;;2.70;99.90;;;;;;5014585;28;20164;-78
2021/01/31 05:02:10;;;;;;;22.88;12.18;;;2.70;99.90;;;;;;5010941;28;20419;-78
2021/01/31 05:04:49;;;;;;;21.58;11.93;;;2.80;99.90;;;;;;5011311;28;20046;-77
2021/01/31 05:07:15;;;;;;;20.75;11.60;;;2.70;99.90;;;;;;5009010;28;20044;-78
2021/01/31 05:09:42;;;;;;;20.63;11.10;;;2.70;99.90;;;;;;4991283;28;20057;-77
2021/01/31 05:12:17;;;;;;;18.20;10.85;;;2.60;99.90;;;;;;5007529;28;20041;-77
2021/01/31 05:14:42;;;;;;;19.02;10.43;;;2.60;99.90;;;;;;5009686;28;20084;-76
2021/01/31 05:17:08;;;;;;;21.63;11.43;;;2.60;99.90;;;;;;4991734;28;20037;-76
2021/01/31 05:19:36;;;;;;;18.65;11.40;;;2.70;99.90;;;;;;4995905;28;20449;-77
2021/01/31 05:22:02;;;;;;;18.70;10.75;;;2.60;99.90;;;;;;5014048;28;20068;-77
2021/01/31 05:24:28;;;;;;;21.23;10.90;;;2.60;99.90;;;;;;5015963;28;20138;-77
2021/01/31 05:27:02;;;;;;;17.95;10.68;;;2.60;99.90;;;;;;5017246;28;20052;-77
2021/01/31 05:29:35;;;;;;;20.42;11.40;;;2.60;99.90;;;;;;5019291;28;20494;-77
2021/01/31 05:32:16;;;;;;;18.95;11.55;;;2.70;99.90;;;;;;5013207;28;20042;-78
2021/01/31 05:34:43;;;;;;;20.50;11.00;;;2.60;99.90;;;;;;5014547;28;20041;-78
2021/01/31 05:37:12;;;;;;;18.27;10.45;;;2.60;99.90;;;;;;4999878;28;20096;-77
2021/01/31 05:39:44;;;;;;;19.13;11.15;;;2.60;99.90;;;;;;5012339;28;20053;-77
2021/01/31 05:42:13;;;;;;;19.95;10.75;;;2.60;99.90;;;;;;5010475;28;20038;-77
2021/01/31 05:44:40;;;;;;;20.58;11.45;;;2.60;99.90;;;;;;5006757;28;20406;-77
2021/01/31 05:47:24;;;;;;;18.38;10.73;;;2.60;99.90;;;;;;5007991;28;20458;-78
2021/01/31 05:49:53;;;;;;;20.17;11.32;;;2.60;99.90;;;;;;4991652;28;20038;-77
2021/01/31 05:52:22;;;;;;;21.33;11.52;;;2.60;99.90;;;;;;5002800;28;20061;-77
2021/01/31 05:54:49;;;;;;;20.40;11.05;;;2.60;99.90;;;;;;5006594;28;20056;-78
2021/01/31 05:57:25;;;;;;;20.63;11.85;;;2.60;99.90;;;;;;5007533;28;20069;-77
2021/01/31 05:59:51;;;;;;;27.42;12.38;;;2.70;99.90;;;;;;5006323;28;20495;-78
2021/01/31 06:02:29;;;;;;;21.95;11.45;;;2.60;99.90;;;;;;4989459;28;20052;-77
2021/01/31 06:05:18;;;;;;;23.95;11.85;;;2.60;99.90;;;;;;5010262;28;20038;-77
2021/01/31 06:07:45;;;;;;;19.98;11.70;;;2.60;99.90;;;;;;5013897;28;20060;-77
2021/01/31 06:10:14;;;;;;;21.15;12.48;;;2.60;99.90;;;;;;5004065;28;20125;-77
2021/01/31 06:12:42;;;;;;;20.42;11.75;;;2.70;99.90;;;;;;5006733;28;20068;-77
2021/01/31 06:15:15;;;;;;;21.17;11.75;;;2.60;99.90;;;;;;5012224;28;20061;-78
2021/01/31 06:17:42;;;;;;;21.73;12.13;;;2.70;99.90;;;;;;5016717;28;20091;-78
2021/01/31 06:20:15;;;;;;;21.33;12.32;;;2.60;99.90;;;;;;5008379;28;20518;-78
2021/01/31 06:22:46;;;;;;;18.90;10.93;;;2.70;99.90;;;;;;5008919;28;20367;-78
2021/01/31 06:25:37;;;;;;;21.42;12.40;;;2.60;99.90;;;;;;5016515;28;20498;-78
2021/01/31 06:28:16;;;;;;;21.80;11.82;;;2.60;99.90;;;;;;5006035;28;20406;-77
2021/01/31 06:31:03;;;;;;;20.02;11.23;;;2.70;99.90;;;;;;5015654;28;20465;-78
2021/01/31 06:33:28;;;;;;;21.77;11.30;;;2.70;99.90;;;;;;5014943;28;20034;-78
2021/01/31 06:36:05;;;;;;;22.08;11.07;;;2.70;99.90;;;;;;5011763;28;20645;-78
2021/01/31 06:39:01;;;;;;;23.67;12.25;;;2.70;99.90;;;;;;5014681;28;20030;-79
2021/01/31 06:41:51;;;;;;;24.85;12.85;;;2.70;99.90;;;;;;5004402;28;20148;-78
2021/01/31 06:44:51;;;;;;;25.65;12.43;;;2.70;99.90;;;;;;5014675;28;20034;-79
2021/01/31 06:47:35;;;;;;;22.27;11.95;;;2.70;99.90;;;;;;5003796;28;20037;-78
2021/01/31 06:50:23;;;;;;;23.05;12.48;;;2.70;99.90;;;;;;4994625;28;20144;-78
2021/01/31 06:52:57;;;;;;;21.33;12.27;;;2.70;99.90;;;;;;5012018;28;20521;-78
2021/01/31 06:55:56;;;;;;;25.02;13.00;;;2.70;99.90;;;;;;4995224;28;20049;-78
2021/01/31 06:58:34;;;;;;;21.05;11.95;;;2.70;99.90;;;;;;5013065;28;20049;-77
2021/01/31 07:01:05;;;;;;;23.10;12.85;;;2.70;99.90;;;;;;5010559;28;20441;-78
2021/01/31 07:04:12;;;;;;;22.98;12.27;;;2.70;99.90;;;;;;5011667;28;20037;-78
2021/01/31 07:07:09;;;;;;;21.58;11.25;;;2.70;99.90;;;;;;5010776;28;20042;-78
2021/01/31 07:09:59;;;;;;;20.02;11.27;;;2.80;99.90;;;;;;5009083;28;20052;-78
2021/01/31 07:12:28;;;;;;;21.67;11.55;;;2.80;99.90;;;;;;4999939;28;20046;-79
2021/01/31 07:15:08;;;;;;;21.45;11.43;;;2.80;99.90;;;;;;5011699;28;20033;-78
2021/01/31 07:17:41;;;;;;;23.15;12.18;;;2.80;99.90;;;;;;5015235;28;20116;-77
2021/01/31 07:20:17;;;;;;;24.53;11.77;;;2.70;99.90;;;;;;5010842;28;20034;-77
2021/01/31 07:23:17;;;;;;;23.65;12.35;;;2.70;99.90;;;;;;5008363;28;20037;-77
2021/01/31 07:25:55;;;;;;;25.88;12.45;;;2.80;99.90;;;;;;5010551;28;20037;-77
2021/01/31 07:28:30;;;;;;;25.90;12.88;;;2.80;99.90;;;;;;5002604;28;20037;-77
2021/01/31 07:31:14;;;;;;;24.75;12.75;;;2.80;99.90;;;;;;5010501;28;20462;-77
2021/01/31 07:33:46;;;;;;;23.30;12.50;;;2.80;99.90;;;;;;5007831;28;20870;-76
2021/01/31 07:36:26;;;;;;;22.83;12.55;;;2.80;99.90;;;;;;4986985;28;20269;-76
2021/01/31 07:39:03;;;;;;;22.80;11.82;;;2.90;99.90;;;;;;5006287;28;20030;-77
2021/01/31 07:41:31;;;;;;;23.17;12.32;;;2.80;99.90;;;;;;5002904;28;20034;-77
2021/01/31 07:44:01;;;;;;;21.35;11.95;;;2.90;99.90;;;;;;4997469;28;20125;-78
2021/01/31 07:46:27;;;;;;;22.30;12.40;;;2.90;99.90;;;;;;5010908;28;20048;-77
2021/01/31 07:48:56;;;;;;;22.50;12.07;;;2.90;99.90;;;;;;5002735;28;20038;-78
2021/01/31 07:51:27;;;;;;;20.63;11.38;;;3.00;99.90;;;;;;5014276;28;20034;-76
2021/01/31 07:54:15;;;;;;;27.23;12.30;;;2.90;99.90;;;;;;5008326;28;20628;-78
2021/01/31 07:56:41;;;;;;;20.65;12.00;;;2.90;99.90;;;;;;4993154;28;20414;-77
2021/01/31 07:59:09;;;;;;;24.92;12.45;;;2.90;99.90;;;;;;4989008;28;20030;-77
2021/01/31 08:01:41;;;;;;;22.55;11.93;;;2.90;99.90;;;;;;5008110;28;20111;-77
2021/01/31 08:04:15;;;;;;;22.63;12.48;;;2.90;99.90;;;;;;5009452;28;20038;-78
2021/01/31 08:06:44;;;;;;;23.33;11.40;;;3.10;99.90;;;;;;5004096;28;20151;-78
2021/01/31 08:09:25;;;;;;;20.85;11.30;;;3.00;99.90;;;;;;4989385;28;20096;-78
2021/01/31 08:12:02;;;;;;;19.55;11.40;;;3.00;99.90;;;;;;4990070;28;20063;-77
2021/01/31 08:15:05;;;;;;;19.55;11.10;;;3.10;99.90;;;;;;5010558;28;20045;-78
2021/01/31 08:17:51;;;;;;;17.40;9.98;;;3.10;99.90;;;;;;5015760;28;20170;-77
2021/01/31 08:20:17;;;;;;;18.83;11.10;;;3.10;99.90;;;;;;5004564;28;20121;-78
2021/01/31 08:22:44;;;;;;;20.05;11.35;;;3.10;99.90;;;;;;5005222;28;20121;-78
2021/01/31 08:25:13;;;;;;;29.33;10.80;;;3.10;99.90;;;;;;5006333;28;20040;-77
2021/01/31 08:27:40;;;;;;;17.15;10.73;;;3.10;99.90;;;;;;4990728;28;20580;-77
2021/01/31 08:30:23;;;;;;;19.67;10.05;;;3.20;99.90;;;;;;5003441;28;20048;-77
2021/01/31 08:32:58;;;;;;;17.77;10.45;;;3.20;99.90;;;;;;5003907;28;20037;-76
2021/01/31 08:35:40;;;;;;;18.10;9.98;;;3.20;99.90;;;;;;5005801;28;20460;-77
2021/01/31 08:38:24;;;;;;;20.27;10.75;;;3.20;99.90;;;;;;5008945;28;20362;-77
2021/01/31 08:40:59;;;;;;;21.35;10.93;;;3.30;99.90;;;;;;4987120;28;20037;-77
2021/01/31 08:43:39;;;;;;;17.38;10.25;;;3.30;99.90;;;;;;5009258;28;20045;-77
2021/01/31 08:46:15;;;;;;;19.23;10.55;;;3.30;99.90;;;;;;5007346;28;20048;-78
2021/01/31 08:48:49;;;;;;;17.05;9.65;;;3.40;99.90;;;;;;5007998;28;20034;-77
2021/01/31 08:51:17;;;;;;;18.45;10.52;;;3.40;99.90;;;;;;4986263;28;20044;-77
2021/01/31 08:53:43;;;;;;;19.30;11.10;;;3.30;99.90;;;;;;4984038;28;20042;-77
2021/01/31 08:56:15;;;;;;;16.15;9.68;;;3.40;99.90;;;;;;5009575;28;20038;-77
2021/01/31 08:58:41;;;;;;;17.92;10.10;;;3.40;99.90;;;;;;4986952;28;20042;-77
2021/01/31 09:01:07;;;;;;;17.70;10.02;;;3.40;99.90;;;;;;5005358;28;20599;-77
2021/01/31 09:03:34;;;;;;;17.70;9.35;;;3.40;99.90;;;;;;5005838;28;20030;-77
2021/01/31 09:06:00;;;;;;;17.27;10.05;;;3.40;99.90;;;;;;5000125;28;20042;-77
2021/01/31 09:08:26;;;;;;;17.55;10.05;;;3.40;99.90;;;;;;5008867;28;20042;-78
2021/01/31 09:10:53;;;;;;;16.85;9.98;;;3.50;99.90;;;;;;5004689;28;20566;-76
2021/01/31 09:13:28;;;;;;;17.70;9.88;;;3.50;99.90;;;;;;4999829;28;20293;-76
2021/01/31 09:16:10;;;;;;;15.30;9.68;;;3.60;99.90;;;;;;5006199;28;20038;-78
2021/01/31 09:18:35;;;;;;;16.38;9.15;;;3.60;99.90;;;;;;5011718;28;20124;-77
2021/01/31 09:21:24;;;;;;;19.10;10.38;;;3.60;99.90;;;;;;4992018;28;20042;-78
2021/01/31 09:23:54;;;;;;;17.65;10.10;;;3.70;99.90;;;;;;4989794;28;20048;-78
2021/01/31 09:26:20;;;;;;;16.15;9.63;;;3.70;99.90;;;;;;5002857;28;20042;-78
2021/01/31 09:28:46;;;;;;;19.98;10.50;;;3.60;99.90;;;;;;4991474;28;20049;-77
2021/01/31 09:31:16;;;;;;;18.58;10.73;;;3.70;99.90;;;;;;5006329;28;20041;-78
2021/01/31 09:33:43;;;;;;;18.17;9.48;;;3.60;99.90;;;;;;4995629;28;20121;-77
2021/01/31 09:36:26;;;;;;;18.70;10.85;;;3.70;99.90;;;;;;5010116;28;20034;-79
2021/01/31 09:38:53;;;;;;;19.08;10.68;;;3.70;99.90;;;;;;5008469;28;20039;-78
2021/01/31 09:41:21;;;;;;;17.25;10.73;;;3.70;99.90;;;;;;5010955;28;20549;-78
2021/01/31 09:43:51;;;;;;;20.95;11.63;;;3.80;99.90;;;;;;5005527;28;20041;-79
2021/01/31 09:46:19;;;;;;;16.50;10.23;;;3.80;99.90;;;;;;5008130;28;20045;-79
2021/01/31 09:48:45;;;;;;;17.23;10.65;;;3.90;99.90;;;;;;5009875;28;20121;-77
2021/01/31 09:51:32;;;;;;;21.70;11.15;;;3.80;99.90;;;;;;5007781;28;20821;-76
2021/01/31 09:54:13;;;;;;;15.50;10.02;;;3.90;99.90;;;;;;5000386;28;20038;-78
2021/01/31 09:56:41;;;;;;;18.67;10.48;;;3.90;99.90;;;;;;5009576;28;20168;-77
2021/01/31 09:59:21;;;;;;;16.75;9.48;;;4.00;99.90;;;;;;5007087;28;20049;-76
2021/01/31 10:01:47;;;;;;;19.08;11.05;;;4.00;99.90;;;;;;4989014;28;20088;-78
2021/01/31 10:04:26;;;;;;;18.55;10.70;;;4.10;99.90;;;;;;5010731;28;20080;-78
2021/01/31 10:07:05;;;;;;;16.52;9.93;;;4.10;99.90;;;;;;5008429;28;20132;-79
2021/01/31 10:09:35;;;;;;;18.13;10.40;;;4.00;99.90;;;;;;5012904;28;20045;-77
2021/01/31 10:12:30;;;;;;;15.57;9.52;;;4.00;99.90;;;;;;5009981;28;20584;-78
2021/01/31 10:14:59;;;;;;;17.13;9.27;;;4.00;99.90;;;;;;5011675;28;20122;-77
2021/01/31 10:17:28;;;;;;;33.72;10.65;;;4.00;99.90;;;;;;5012997;28;20041;-77
2021/01/31 10:20:32;;;;;;;18.15;10.35;;;4.10;99.90;;;;;;5011908;28;20040;-78
2021/01/31 10:23:16;;;;;;;16.92;10.15;;;4.10;99.90;;;;;;5012291;28;20094;-79
2021/01/31 10:25:44;;;;;;;16.70;9.65;;;4.20;99.90;;;;;;5012589;28;20724;-77
2021/01/31 10:28:13;;;;;;;16.98;9.82;;;4.30;99.90;;;;;;4991868;28;20455;-77
2021/01/31 10:30:43;;;;;;;18.83;9.65;;;4.30;99.90;;;;;;4998208;28;20116;-77
2021/01/31 10:33:38;;;;;;;19.08;10.30;;;4.30;99.90;;;;;;5016332;28;20057;-77
2021/01/31 10:36:21;;;;;;;20.33;10.93;;;4.30;99.90;;;;;;5018548;28;20034;-77
2021/01/31 10:38:47;;;;;;;19.10;10.80;;;4.40;99.90;;;;;;5010211;28;20030;-76
2021/01/31 10:41:13;;;;;;;17.25;10.32;;;4.40;99.90;;;;;;5011070;28;20513;-78
2021/01/31 10:43:38;;;;;;;22.17;11.27;;;4.50;99.90;;;;;;5013495;28;20077;-78
2021/01/31 10:46:04;;;;;;;19.00;10.60;;;4.60;99.90;;;;;;5012818;28;20163;-79
2021/01/31 10:48:30;;;;;;;19.88;10.10;;;4.70;99.90;;;;;;5011792;28;20799;-79
2021/01/31 10:50:55;;;;;;;19.35;11.05;;;4.70;99.90;;;;;;5008071;28;20037;-78
2021/01/31 10:53:21;;;;;;;18.38;10.45;;;4.80;99.90;;;;;;5010533;28;20038;-77
2021/01/31 10:55:47;;;;;;;18.33;9.55;;;4.80;99.90;;;;;;5006986;28;20080;-77
2021/01/31 10:58:13;;;;;;;19.42;11.00;;;4.80;99.90;;;;;;5005586;28;20034;-78
2021/01/31 11:00:38;;;;;;;24.15;10.50;;;4.80;99.90;;;;;;5012004;28;20041;-78
2021/01/31 11:03:04;;;;;;;18.83;10.45;;;4.80;99.90;;;;;;5004286;28;20034;-78
2021/01/31 11:05:30;;;;;;;17.77;11.07;;;4.80;99.90;;;;;;5008842;28;20136;-78
2021/01/31 11:07:55;;;;;;;19.50;10.23;;;4.90;99.90;;;;;;5005893;28;20042;-77
2021/01/31 11:10:21;;;;;;;17.45;10.10;;;4.90;99.90;;;;;;4989291;28;20049;-78
2021/01/31 11:12:47;;;;;;;20.63;10.57;;;5.00;99.90;;;;;;5008113;28;20258;-78
2021/01/31 11:15:14;;;;;;;19.52;10.60;;;5.00;99.90;;;;;;5009230;28;20034;-78
2021/01/31 11:17:39;;;;;;;18.35;10.07;;;5.10;99.90;;;;;;5010391;28;20038;-78
2021/01/31 11:20:06;;;;;;;20.83;10.20;;;5.10;99.90;;;;;;5008305;28;20117;-78
2021/01/31 11:22:32;;;;;;;16.70;10.38;;;5.10;99.90;;;;;;5007718;28;20061;-79
2021/01/31 11:24:58;;;;;;;16.80;9.18;;;5.20;99.90;;;;;;4992176;28;20096;-79
2021/01/31 11:27:23;;;;;;;18.20;8.90;;;5.10;99.90;;;;;;5011949;28;20052;-78
2021/01/31 11:29:49;;;;;;;16.80;9.75;;;5.30;99.90;;;;;;5011506;28;20037;-83
2021/01/31 11:32:14;;;;;;;17.52;8.88;;;5.40;99.90;;;;;;4992002;28;20525;-80
2021/01/31 11:34:40;;;;;;;13.38;8.18;;;5.30;99.90;;;;;;5010866;28;20034;-78
2021/01/31 11:37:05;;;;;;;14.05;8.23;;;5.40;99.90;;;;;;5007368;28;20775;-76
2021/01/31 11:39:31;;;;;;;13.73;8.70;;;5.40;99.90;;;;;;5009373;28;20118;-79
2021/01/31 11:41:57;;;;;;;15.65;8.63;;;5.30;99.90;;;;;;5009182;28;20044;-80
2021/01/31 11:44:23;;;;;;;17.83;9.13;;;5.40;99.90;;;;;;5010275;28;20480;-80
2021/01/31 11:46:49;;;;;;;17.13;8.43;;;5.40;99.90;;;;;;4990165;28;20506;-80
2021/01/31 11:49:14;;;;;;;14.35;9.00;;;5.40;99.90;;;;;;5007009;28;22271;-80
2021/01/31 11:51:40;;;;;;;15.65;9.35;;;5.60;99.90;;;;;;5007983;28;20064;-77
2021/01/31 11:54:06;;;;;;;16.55;8.70;;;5.60;99.90;;;;;;5009407;28;20033;-78
2021/01/31 11:56:32;;;;;;;15.07;8.23;;;5.50;99.90;;;;;;5009584;28;20041;-79
2021/01/31 11:58:57;;;;;;;15.35;8.95;;;5.50;99.90;;;;;;5009835;28;20037;-80
2021/01/31 12:01:24;;;;;;;16.58;9.43;;;5.50;99.90;;;;;;5008861;28;20064;-79
2021/01/31 12:03:49;;;;;;;16.92;9.00;;;5.60;99.90;;;;;;4991817;28;20121;-79
2021/01/31 12:06:15;;;;;;;15.93;9.32;;;5.70;99.90;;;;;;5006695;28;20124;-80
2021/01/31 12:08:41;;;;;;;14.95;9.30;;;5.70;99.90;;;;;;5011441;28;20048;-80
2021/01/31 12:11:07;;;;;;;17.23;9.13;;;5.70;99.90;;;;;;5011121;28;20069;-82
2021/01/31 12:13:33;;;;;;;14.90;8.60;;;5.70;99.90;;;;;;5010698;28;20046;-79
2021/01/31 12:15:59;;;;;;;14.73;9.00;;;5.60;99.90;;;;;;5010803;28;20119;-79
2021/01/31 12:18:25;;;;;;;19.00;10.30;;;5.50;99.90;;;;;;4997308;28;20381;-80
2021/01/31 12:20:51;;;;;;;17.25;10.35;;;5.50;99.90;;;;;;5010221;28;20058;-79
2021/01/31 12:23:16;;;;;;;16.38;9.68;;;5.40;99.90;;;;;;5008870;28;20188;-78
2021/01/31 12:25:42;;;;;;;17.30;9.43;;;5.40;99.90;;;;;;4996554;28;20509;-79
2021/01/31 12:28:08;;;;;;;19.30;10.20;;;5.40;99.90;;;;;;5009677;28;20149;-78
2021/01/31 12:30:34;;;;;;;17.60;10.13;;;5.50;99.90;;;;;;5007753;28;20112;-78
2021/01/31 12:33:01;;;;;;;18.05;9.45;;;5.40;99.90;;;;;;5012180;28;20509;-81
2021/01/31 12:35:28;;;;;;;16.42;9.57;;;5.50;99.90;;;;;;5014382;28;20186;-78
2021/01/31 12:37:55;;;;;;;17.15;9.20;;;5.50;99.90;;;;;;5021201;28;20103;-77
2021/01/31 12:40:22;;;;;;;18.00;9.63;;;5.40;99.90;;;;;;5008062;28;20038;-78
2021/01/31 12:42:48;;;;;;;17.13;9.32;;;5.40;99.90;;;;;;5004027;28;20037;-77
2021/01/31 12:45:16;;;;;;;20.67;10.02;;;5.50;99.90;;;;;;4995676;28;20458;-77
2021/01/31 12:47:41;;;;;;;17.90;9.68;;;5.50;99.90;;;;;;5005422;28;20069;-77
2021/01/31 12:50:08;;;;;;;18.95;9.55;;;5.50;99.90;;;;;;5006118;28;20076;-78
2021/01/31 12:52:37;;;;;;;20.05;10.95;;;5.50;99.90;;;;;;5011794;28;20730;-78
2021/01/31 12:55:05;;;;;;;18.67;9.48;;;5.50;99.90;;;;;;5010904;28;20490;-78
2021/01/31 12:57:31;;;;;;;18.85;9.48;;;5.50;99.90;;;;;;5004889;28;20521;-78
2021/01/31 12:59:57;;;;;;;17.55;9.65;;;5.50;99.90;;;;;;5002973;28;20033;-78
2021/01/31 13:02:23;;;;;;;16.92;9.65;;;5.50;99.90;;;;;;4998233;28;20042;-78